X  Fechar Dados meteorológicos de METAR da aviação     ETAR Ramstein Air Base
Temperatura
11°C Temperatura
7°C Ponto de orvalho
77% Umidade



Vento
13 KM/H
8 MPH
4 M/S
7 NÓS



50°
NL
Condições atuais

Muito nublado Muito nublado
Pressão 1000.34 (hPa) - 29.54 (inHg)
Visibilidade 6 (milha) - 9.7 (km)
Aeroporto
Código do aeroporto ETAR

Localização: Ramstein Air Base
Distância: 25 (km)

Metar:
ETAR 261455Z AUTO 05007KT 9999 BKN060 11/07 A2954 RMK AO2 SLP009 T01120069 52013 $

Hora: 26-02-2024 15:55 CET